Wetterdaten: Woche 21.05.07 - 27.05.07 (KW21)
Datum Zeit Temperatur Luftfeuchte Luftdruck Niederschlag
21.05.2007 00:00 15,2 C 66 % 1016 hPa 0,0 l/m
21.05.2007 01:00 14,0 C 73 % 1016 hPa 0,0 l/m
21.05.2007 02:00 13,0 C 79 % 1016 hPa 0,0 l/m
21.05.2007 03:00 12,3 C 83 % 1016 hPa 0,0 l/m
21.05.2007 04:00 11,5 C 86 % 1016 hPa 0,0 l/m
21.05.2007 05:00 11,1 C 90 % 1017 hPa 0,0 l/m
21.05.2007 06:00 11,4 C 91 % 1017 hPa 0,0 l/m
21.05.2007 07:00 13,9 C 85 % 1017 hPa 0,0 l/m
21.05.2007 08:00 17,8 C 70 % 1017 hPa 0,0 l/m
21.05.2007 09:00 21,5 C 55 % 1017 hPa 0,0 l/m
21.05.2007 10:00 24,1 C 42 % 1017 hPa 0,0 l/m
21.05.2007 11:00 25,6 C 34 % 1018 hPa 0,0 l/m
21.05.2007 12:00 26,5 C 31 % 1018 hPa 0,0 l/m
21.05.2007 13:00 27,3 C 30 % 1017 hPa 0,0 l/m
21.05.2007 14:00 27,9 C 30 % 1017 hPa 0,0 l/m
21.05.2007 15:00 28,2 C 29 % 1017 hPa 0,0 l/m
21.05.2007 16:00 28,5 C 25 % 1017 hPa 0,0 l/m
21.05.2007 17:00 28,7 C 23 % 1017 hPa 0,0 l/m
21.05.2007 18:00 28,4 C 26 % 1017 hPa 0,0 l/m
21.05.2007 19:00 25,1 C 38 % 1018 hPa 0,0 l/m
21.05.2007 20:00 22,4 C 47 % 1018 hPa 0,0 l/m
21.05.2007 21:00 20,8 C 63 % 1019 hPa 0,0 l/m
21.05.2007 22:00 19,0 C 76 % 1019 hPa 0,0 l/m
21.05.2007 23:00 18,2 C 77 % 1020 hPa 0,0 l/m
22.05.2007 00:00 18,1 C 78 % 1020 hPa 0,0 l/m
22.05.2007 01:00 17,1 C 81 % 1020 hPa 2,0 l/m
22.05.2007 02:00 16,2 C 88 % 1020 hPa 1,0 l/m
22.05.2007 03:00 15,8 C 90 % 1020 hPa 0,0 l/m
22.05.2007 04:00 15,5 C 90 % 1020 hPa 0,0 l/m
22.05.2007 05:00 15,2 C 92 % 1020 hPa 0,0 l/m
22.05.2007 06:00 15,4 C 92 % 1020 hPa 0,0 l/m
22.05.2007 07:00 15,6 C 93 % 1021 hPa 0,0 l/m
22.05.2007 08:00 16,0 C 93 % 1022 hPa 0,0 l/m
22.05.2007 09:00 16,2 C 94 % 1022 hPa 0,0 l/m
22.05.2007 10:00 16,5 C 94 % 1022 hPa 0,0 l/m
22.05.2007 11:00 16,6 C 94 % 1022 hPa 1,0 l/m
22.05.2007 12:00 17,4 C 93 % 1022 hPa 0,0 l/m
22.05.2007 13:00 19,0 C 82 % 1022 hPa 0,0 l/m
22.05.2007 14:00 21,1 C 66 % 1022 hPa 0,0 l/m
22.05.2007 15:00 22,2 C 59 % 1021 hPa 0,0 l/m
22.05.2007 16:00 23,5 C 45 % 1020 hPa 0,0 l/m
22.05.2007 17:00 23,6 C 44 % 1020 hPa 0,0 l/m
22.05.2007 18:00 24,2 C 43 % 1020 hPa 0,0 l/m
22.05.2007 19:00 23,8 C 45 % 1019 hPa 0,0 l/m
22.05.2007 20:00 21,8 C 56 % 1020 hPa 0,0 l/m
22.05.2007 21:00 20,0 C 67 % 1020 hPa 0,0 l/m
22.05.2007 22:00 18,1 C 72 % 1020 hPa 0,0 l/m
22.05.2007 23:00 16,6 C 78 % 1020 hPa 0,0 l/m
23.05.2007 00:00 16,3 C 80 % 1020 hPa 0,0 l/m
23.05.2007 01:00 14,7 C 86 % 1020 hPa 0,0 l/m
23.05.2007 02:00 14,3 C 87 % 1020 hPa 0,0 l/m
23.05.2007 03:00 14,2 C 89 % 1020 hPa 0,0 l/m
23.05.2007 04:00 13,4 C 90 % 1020 hPa 0,0 l/m
23.05.2007 05:00 12,7 C 92 % 1020 hPa 0,0 l/m
23.05.2007 06:00 12,4 C 94 % 1020 hPa 0,0 l/m
23.05.2007 07:00 14,7 C 95 % 1020 hPa 0,0 l/m
23.05.2007 08:00 18,3 C 80 % 1020 hPa 0,0 l/m
23.05.2007 09:00 21,2 C 61 % 1020 hPa 0,0 l/m
23.05.2007 10:00 23,4 C 46 % 1020 hPa 0,0 l/m
23.05.2007 11:00 24,4 C 42 % 1020 hPa 0,0 l/m
23.05.2007 12:00 24,9 C 42 % 1020 hPa 0,0 l/m
23.05.2007 13:00 25,8 C 39 % 1020 hPa 0,0 l/m
23.05.2007 14:00 26,4 C 34 % 1019 hPa 0,0 l/m
23.05.2007 15:00 26,3 C 34 % 1019 hPa 0,0 l/m
23.05.2007 16:00 26,2 C 35 % 1018 hPa 0,0 l/m
23.05.2007 17:00 26,9 C 32 % 1018 hPa 0,0 l/m
23.05.2007 18:00 26,2 C 33 % 1018 hPa 0,0 l/m
23.05.2007 19:00 24,8 C 38 % 1018 hPa 0,0 l/m
23.05.2007 20:00 23,3 C 44 % 1018 hPa 0,0 l/m
23.05.2007 21:00 21,7 C 50 % 1018 hPa 0,0 l/m
23.05.2007 22:00 19,8 C 60 % 1019 hPa 0,0 l/m
23.05.2007 23:00 18,2 C 68 % 1019 hPa 0,0 l/m
24.05.2007 00:00 17,1 C 74 % 1018 hPa 0,0 l/m
24.05.2007 01:00 16,4 C 78 % 1018 hPa 0,0 l/m
24.05.2007 02:00 15,8 C 82 % 1018 hPa 0,0 l/m
24.05.2007 03:00 15,4 C 84 % 1018 hPa 0,0 l/m
24.05.2007 04:00 14,8 C 87 % 1017 hPa 0,0 l/m
24.05.2007 05:00 14,3 C 89 % 1017 hPa 0,0 l/m
24.05.2007 06:00 14,2 C 91 % 1017 hPa 0,0 l/m
24.05.2007 07:00 16,0 C 86 % 1018 hPa 0,0 l/m
24.05.2007 08:00 18,2 C 72 % 1018 hPa 0,0 l/m
24.05.2007 09:00 20,2 C 64 % 1018 hPa 0,0 l/m
24.05.2007 10:00 22,4 C 54 % 1018 hPa 0,0 l/m
24.05.2007 11:00 24,1 C 47 % 1017 hPa 0,0 l/m
24.05.2007 12:00 25,7 C 42 % 1017 hPa 0,0 l/m
24.05.2007 13:00 26,9 C 38 % 1017 hPa 0,0 l/m
24.05.2007 14:00 27,8 C 35 % 1016 hPa 0,0 l/m
24.05.2007 15:00 28,6 C 31 % 1016 hPa 0,0 l/m
24.05.2007 16:00 29,2 C 30 % 1015 hPa 0,0 l/m
24.05.2007 17:00 29,3 C 29 % 1015 hPa 0,0 l/m
24.05.2007 18:00 28,6 C 30 % 1014 hPa 0,0 l/m
24.05.2007 19:00 27,1 C 35 % 1014 hPa 0,0 l/m
24.05.2007 20:00 25,3 C 44 % 1014 hPa 0,0 l/m
24.05.2007 21:00 22,1 C 57 % 1015 hPa 0,0 l/m
24.05.2007 22:00 20,1 C 67 % 1015 hPa 0,0 l/m
24.05.2007 23:00 18,9 C 72 % 1015 hPa 0,0 l/m
25.05.2007 00:00 17,9 C 77 % 1015 hPa 0,0 l/m
25.05.2007 01:00 16,9 C 82 % 1015 hPa 0,0 l/m
25.05.2007 02:00 16,1 C 85 % 1014 hPa 0,0 l/m
25.05.2007 03:00 15,5 C 89 % 1014 hPa 0,0 l/m
25.05.2007 04:00 15,4 C 91 % 1014 hPa 0,0 l/m
25.05.2007 05:00 15,8 C 86 % 1014 hPa 0,0 l/m
25.05.2007 06:00 15,9 C 85 % 1014 hPa 0,0 l/m
25.05.2007 07:00 16,2 C 83 % 1014 hPa 0,0 l/m
25.05.2007 08:00 17,5 C 78 % 1014 hPa 0,0 l/m
25.05.2007 09:00 18,6 C 73 % 1014 hPa 0,0 l/m
25.05.2007 10:00 20,2 C 65 % 1014 hPa 0,0 l/m
25.05.2007 11:00 23,8 C 49 % 1013 hPa 0,0 l/m
25.05.2007 12:00 26,4 C 37 % 1013 hPa 0,0 l/m
25.05.2007 13:00 27,9 C 31 % 1012 hPa 0,0 l/m
25.05.2007 14:00 28,6 C 29 % 1012 hPa 0,0 l/m
25.05.2007 15:00 28,7 C 26 % 1011 hPa 0,0 l/m
25.05.2007 16:00 29,0 C 25 % 1010 hPa 0,0 l/m
25.05.2007 17:00 28,7 C 25 % 1010 hPa 0,0 l/m
25.05.2007 18:00 28,5 C 27 % 1010 hPa 0,0 l/m
25.05.2007 19:00 26,9 C 32 % 1009 hPa 0,0 l/m
25.05.2007 20:00 24,3 C 40 % 1009 hPa 0,0 l/m
25.05.2007 21:00 21,5 C 49 % 1009 hPa 0,0 l/m
25.05.2007 22:00 19,6 C 58 % 1009 hPa 0,0 l/m
25.05.2007 23:00 18,2 C 63 % 1009 hPa 0,0 l/m
26.05.2007 00:00 17,0 C 69 % 1009 hPa 0,0 l/m
26.05.2007 01:00 16,0 C 75 % 1009 hPa 0,0 l/m
26.05.2007 02:00 15,3 C 80 % 1009 hPa 0,0 l/m
26.05.2007 03:00 14,6 C 84 % 1008 hPa 0,0 l/m
26.05.2007 04:00 14,2 C 84 % 1009 hPa 0,0 l/m
26.05.2007 05:00 13,6 C 85 % 1009 hPa 0,0 l/m
26.05.2007 06:00 13,8 C 85 % 1009 hPa 0,0 l/m
26.05.2007 07:00 15,6 C 78 % 1009 hPa 0,0 l/m
26.05.2007 08:00 18,0 C 69 % 1008 hPa 0,0 l/m
26.05.2007 09:00 20,9 C 51 % 1008 hPa 0,0 l/m
26.05.2007 10:00 22,5 C 44 % 1008 hPa 0,0 l/m
26.05.2007 11:00 25,6 C 32 % 1007 hPa 0,0 l/m
26.05.2007 12:00 27,0 C 29 % 1006 hPa 0,0 l/m
26.05.2007 13:00 27,5 C 28 % 1006 hPa 0,0 l/m
26.05.2007 14:00 28,0 C 27 % 1006 hPa 0,0 l/m
26.05.2007 15:00 27,8 C 25 % 1005 hPa 0,0 l/m
26.05.2007 16:00 26,2 C 23 % 1005 hPa 0,0 l/m
26.05.2007 17:00 25,8 C 24 % 1004 hPa 0,0 l/m
26.05.2007 18:00 25,3 C 27 % 1004 hPa 0,0 l/m
26.05.2007 19:00 24,5 C 30 % 1003 hPa 0,0 l/m
26.05.2007 20:00 21,5 C 38 % 1004 hPa 0,0 l/m
26.05.2007 21:00 19,7 C 44 % 1004 hPa 0,0 l/m
26.05.2007 22:00 19,1 C 45 % 1004 hPa 0,0 l/m
26.05.2007 23:00 18,7 C 47 % 1004 hPa 0,0 l/m
27.05.2007 00:00 17,5 C 56 % 1004 hPa 0,0 l/m
27.05.2007 01:00 17,0 C 62 % 1004 hPa 0,0 l/m
27.05.2007 02:00 16,2 C 66 % 1003 hPa 0,0 l/m
27.05.2007 03:00 15,2 C 70 % 1003 hPa 0,0 l/m
27.05.2007 04:00 14,2 C 75 % 1002 hPa 0,0 l/m
27.05.2007 05:00 13,4 C 79 % 1002 hPa 0,0 l/m
27.05.2007 06:00 12,9 C 84 % 1003 hPa 0,0 l/m
27.05.2007 07:00 15,0 C 80 % 1003 hPa 0,0 l/m
27.05.2007 08:00 17,8 C 56 % 1003 hPa 0,0 l/m
27.05.2007 09:00 19,5 C 46 % 1003 hPa 0,0 l/m
27.05.2007 10:00 20,3 C 45 % 1003 hPa 0,0 l/m
27.05.2007 11:00 21,0 C 43 % 1003 hPa 0,0 l/m
27.05.2007 12:00 21,0 C 42 % 1003 hPa 0,0 l/m
27.05.2007 13:00 21,2 C 40 % 1002 hPa 0,0 l/m
27.05.2007 14:00 21,6 C 39 % 1002 hPa 0,0 l/m
27.05.2007 15:00 22,1 C 39 % 1001 hPa 0,0 l/m
27.05.2007 16:00 22,9 C 36 % 1000 hPa 0,0 l/m
27.05.2007 17:00 22,5 C 36 % 1000 hPa 0,0 l/m
27.05.2007 18:00 21,4 C 40 % 1000 hPa 0,0 l/m
27.05.2007 19:00 19,5 C 51 % 1000 hPa 0,0 l/m
27.05.2007 20:00 17,7 C 61 % 1000 hPa 0,0 l/m
27.05.2007 21:00 16,5 C 64 % 1000 hPa 0,0 l/m
27.05.2007 22:00 15,5 C 64 % 1000 hPa 0,0 l/m
27.05.2007 23:00 15,1 C 68 % 1001 hPa 5,0 l/m
Min-Datum _ 21.05.07 25.05.07 27.05.07 -
_ Min-Zeit 05:52 16:05 19:52 -
Minimum _ 10,9 C 22 % 999 hPa -
Max-Datum _ 24.05.07 22.05.07 22.05.07 27.05.07
_ Max-Zeit 17:03 11:55 08:09 23:23
Maximum _ 29,4 C 96 % 1022 hPa 5,0 l/m
Durchschnitt _ 20,2 C 59 % 1014 hPa #9,0 l/m

Durchschnitt Minimum Temp.19,7 C
Durchschnitt Maximum Temp.20,8 C